Anaheim, California
Current Conditions -  °F | °C
As of 1:53 PM on Thursday 18 Dec 2014 (Local Time) from KFUL Reporting Station
Overcast Overcast  
Wind Chill: 63°   Ceiling: 6500
Heat Index: 63°   Visibility: 10mi
Dew Point: 47°   Wind: 8mph
Humidity: 56%   Direction: 220°SW
Pressure: 30.12"   Gusts: NA
Location:  33.83°N, 117.91°W
Report Text: KFUL 182153Z 22007KT 10SM BKN065 OVC080 17/08 A3012 RMK AO2 SLP201 T01720083
Loading
Personal Weather Stations






























Interactive Weather Map New forecast layout! Learn more

10-Day Weather Forecast

Advertisements
Track Severe Weather on mobile